Time;durP1;ratioP1;P1;durP2;ratioP2;P2;SDS_P1;SDS_P2;PMS_P1;PMS_P2;Temp;Humidity;BMP_temperature;BMP_pressure;BME280_temperature;BME280_humidity;BME280_pressure;Samples;Min_cycle;Max_cycle;Signal;HPM_P1;HPM_P2
2022/07/05 00:01:00;;;;;;;1.10;0.90;;;22.50;54.60;;;;;;5069003;28;20056;-73
2022/07/05 00:03:28;;;;;;;1.10;1.00;;;22.50;54.70;;;;;;5068502;28;20058;-73
2022/07/05 00:05:55;;;;;;;1.02;0.75;;;22.60;54.70;;;;;;5068983;28;20514;-73
2022/07/05 00:08:22;;;;;;;0.88;0.88;;;22.60;54.80;;;;;;5069093;28;20076;-73
2022/07/05 00:10:49;;;;;;;1.20;1.08;;;22.50;54.80;;;;;;5069098;28;20044;-73
2022/07/05 00:13:15;;;;;;;1.05;0.90;;;22.50;54.70;;;;;;5070077;28;20046;-73
2022/07/05 00:15:42;;;;;;;0.80;0.80;;;22.50;54.70;;;;;;5069008;28;20056;-73
2022/07/05 00:18:09;;;;;;;0.80;0.80;;;22.50;54.80;;;;;;5068705;28;20044;-73
2022/07/05 00:20:37;;;;;;;1.17;0.95;;;22.50;54.70;;;;;;5067953;28;20520;-73
2022/07/05 00:23:04;;;;;;;1.00;0.90;;;22.50;54.80;;;;;;5068831;28;20128;-73
2022/07/05 00:25:31;;;;;;;0.98;0.90;;;22.50;54.80;;;;;;5069107;28;20107;-73
2022/07/05 00:27:57;;;;;;;1.20;1.05;;;22.40;54.70;;;;;;5069873;28;20049;-73
2022/07/05 00:30:24;;;;;;;0.98;0.80;;;22.40;54.70;;;;;;5068704;28;20060;-73
2022/07/05 00:32:51;;;;;;;1.05;0.82;;;22.40;54.70;;;;;;5068283;28;20603;-73
2022/07/05 00:35:18;;;;;;;1.38;0.80;;;22.40;54.70;;;;;;5068066;28;20151;-73
2022/07/05 00:37:46;;;;;;;0.80;0.80;;;22.40;54.70;;;;;;5068585;28;20075;-73
2022/07/05 00:40:13;;;;;;;1.63;0.98;;;22.40;54.70;;;;;;5068559;28;20087;-73
2022/07/05 00:42:39;;;;;;;0.90;0.90;;;22.40;54.70;;;;;;5068453;28;20052;-74
2022/07/05 00:45:07;;;;;;;1.13;1.00;;;22.40;54.80;;;;;;5068170;28;20131;-73
2022/07/05 00:47:34;;;;;;;1.20;0.90;;;22.40;54.70;;;;;;5068665;28;20048;-73
2022/07/05 00:50:00;;;;;;;1.02;0.93;;;22.40;54.80;;;;;;5050740;28;20132;-73
2022/07/05 00:52:27;;;;;;;1.13;0.80;;;22.30;54.70;;;;;;5048198;28;20118;-73
2022/07/05 00:54:55;;;;;;;1.35;1.00;;;22.30;54.80;;;;;;5048144;28;20146;-73
2022/07/05 00:57:22;;;;;;;1.02;0.90;;;22.30;54.80;;;;;;5048116;28;20068;-73
2022/07/05 00:59:49;;;;;;;1.08;0.98;;;22.30;54.80;;;;;;5048175;28;20049;-74
2022/07/05 01:02:16;;;;;;;1.00;0.80;;;22.20;54.70;;;;;;5062300;28;20581;-73
2022/07/05 01:04:42;;;;;;;0.98;0.82;;;22.30;55.40;;;;;;5054086;28;20079;-73
2022/07/05 01:07:09;;;;;;;1.02;0.90;;;22.30;54.70;;;;;;5066820;28;20420;-74
2022/07/05 01:09:36;;;;;;;1.30;1.20;;;22.30;54.80;;;;;;5067741;28;20076;-73
2022/07/05 01:12:04;;;;;;;1.23;0.80;;;22.30;54.80;;;;;;5068958;28;20706;-74
2022/07/05 01:14:31;;;;;;;1.33;1.00;;;22.30;54.80;;;;;;5067906;28;20132;-73
2022/07/05 01:16:58;;;;;;;1.35;0.90;;;22.20;54.70;;;;;;5068058;28;20554;-73
2022/07/05 01:19:25;;;;;;;1.63;1.10;;;22.20;54.70;;;;;;5066797;28;20132;-73
2022/07/05 01:21:51;;;;;;;1.10;1.00;;;22.20;54.80;;;;;;5067702;28;20067;-73
2022/07/05 01:24:20;;;;;;;1.45;0.90;;;22.20;54.70;;;;;;5067732;28;20144;-74
2022/07/05 01:26:48;;;;;;;1.33;0.95;;;22.30;54.80;;;;;;5068128;28;20473;-74
2022/07/05 01:29:14;;;;;;;0.77;0.77;;;22.20;54.80;;;;;;5067505;28;20048;-74
2022/07/05 01:31:41;;;;;;;1.50;0.90;;;22.20;54.80;;;;;;5067092;28;20067;-74
2022/07/05 01:34:08;;;;;;;1.10;1.00;;;22.10;54.70;;;;;;5067190;28;20127;-73
2022/07/05 01:36:35;;;;;;;0.95;0.85;;;22.10;54.70;;;;;;5067678;28;20052;-73
2022/07/05 01:39:02;;;;;;;1.77;0.85;;;22.30;54.90;;;;;;5068585;28;20417;-73
2022/07/05 01:41:30;;;;;;;0.93;0.80;;;22.10;54.80;;;;;;5067860;28;20062;-73
2022/07/05 01:43:57;;;;;;;1.30;0.90;;;22.10;54.80;;;;;;5067735;28;20075;-73
2022/07/05 01:46:24;;;;;;;1.00;0.90;;;22.10;54.70;;;;;;5048359;28;20049;-74
2022/07/05 01:48:51;;;;;;;1.17;1.00;;;22.10;54.70;;;;;;5047295;28;20501;-73
2022/07/05 01:51:21;;;;;;;1.00;0.90;;;22.10;54.70;;;;;;5047509;28;20396;-73
2022/07/05 01:53:47;;;;;;;1.10;1.00;;;22.10;54.70;;;;;;5047328;28;20533;-73
2022/07/05 01:56:14;;;;;;;1.13;0.80;;;22.10;54.70;;;;;;5047582;28;20063;-74
2022/07/05 01:58:42;;;;;;;1.27;1.00;;;22.10;54.70;;;;;;5047410;28;20059;-73
2022/07/05 02:01:09;;;;;;;1.50;1.00;;;22.10;54.70;;;;;;5065600;28;20080;-73
2022/07/05 02:03:36;;;;;;;1.75;1.00;;;22.10;54.70;;;;;;5067443;28;20112;-74
2022/07/05 02:06:02;;;;;;;1.58;0.90;;;22.10;54.70;;;;;;5067404;28;20135;-74
2022/07/05 02:08:29;;;;;;;1.08;0.98;;;22.10;54.70;;;;;;5067359;28;20556;-73
2022/07/05 02:10:56;;;;;;;1.50;1.10;;;22.00;54.70;;;;;;5067445;28;20151;-73
2022/07/05 02:13:23;;;;;;;1.10;0.95;;;22.00;54.60;;;;;;5069955;28;20136;-73
2022/07/05 02:15:51;;;;;;;1.40;1.02;;;22.00;54.70;;;;;;5069057;28;20061;-73
2022/07/05 02:18:18;;;;;;;1.25;0.80;;;22.00;54.70;;;;;;5071098;28;20051;-73
2022/07/05 02:20:44;;;;;;;1.15;1.00;;;22.00;54.70;;;;;;5071279;28;20086;-73
2022/07/05 02:23:11;;;;;;;1.40;1.10;;;22.00;54.70;;;;;;5070767;28;20147;-73
2022/07/05 02:25:39;;;;;;;1.52;1.00;;;22.00;54.70;;;;;;5070969;28;20479;-73
2022/07/05 02:28:06;;;;;;;1.40;1.08;;;22.00;54.70;;;;;;5071337;28;20158;-73
2022/07/05 02:30:33;;;;;;;2.05;1.05;;;21.90;54.60;;;;;;5057200;28;20136;-74
2022/07/05 02:33:01;;;;;;;1.45;1.00;;;21.90;54.60;;;;;;5034288;28;20081;-73
2022/07/05 02:35:28;;;;;;;1.10;0.90;;;21.90;54.60;;;;;;5050982;28;20494;-73
2022/07/05 02:37:54;;;;;;;0.90;0.90;;;21.90;54.70;;;;;;5054550;28;20053;-73
2022/07/05 02:40:21;;;;;;;0.80;0.80;;;21.90;54.60;;;;;;5068293;28;20136;-73
2022/07/05 02:42:48;;;;;;;1.13;1.00;;;21.90;54.60;;;;;;5070821;28;20060;-73
2022/07/05 02:45:15;;;;;;;1.02;0.93;;;21.90;54.60;;;;;;5054145;28;20088;-73
2022/07/05 02:47:41;;;;;;;1.17;0.80;;;21.90;54.60;;;;;;5070650;28;20724;-73
2022/07/05 02:50:11;;;;;;;1.30;0.90;;;21.80;54.60;;;;;;5070436;28;20059;-73
2022/07/05 02:52:38;;;;;;;1.42;1.00;;;21.80;54.60;;;;;;5070743;28;20048;-73
2022/07/05 02:55:06;;;;;;;1.23;0.93;;;21.80;54.70;;;;;;5068338;28;20127;-74
2022/07/05 02:57:33;;;;;;;1.38;1.00;;;21.80;54.70;;;;;;5070359;28;20048;-73
2022/07/05 03:00:00;;;;;;;0.90;0.90;;;21.80;54.60;;;;;;5070365;28;20052;-74
2022/07/05 03:02:26;;;;;;;1.08;0.90;;;21.80;54.60;;;;;;5069622;28;20053;-73
2022/07/05 03:04:53;;;;;;;2.60;1.10;;;21.80;54.60;;;;;;5070369;28;20055;-73
2022/07/05 03:07:21;;;;;;;1.10;1.00;;;21.70;54.60;;;;;;5070586;28;20052;-73
2022/07/05 03:09:48;;;;;;;0.80;0.80;;;21.70;54.60;;;;;;5070726;28;20606;-73
2022/07/05 03:12:15;;;;;;;1.23;1.02;;;21.70;54.60;;;;;;5069851;28;20803;-73
2022/07/05 03:14:41;;;;;;;1.02;0.90;;;21.70;54.60;;;;;;5070069;28;20131;-73
2022/07/05 03:17:08;;;;;;;1.42;1.10;;;22.40;55.00;;;;;;5053857;28;20053;-73
2022/07/05 03:19:35;;;;;;;1.10;1.00;;;21.70;54.70;;;;;;5069884;28;20486;-73
2022/07/05 03:22:01;;;;;;;0.93;0.85;;;21.70;54.70;;;;;;5053659;28;20144;-73
2022/07/05 03:24:30;;;;;;;0.82;0.82;;;21.70;54.70;;;;;;5063508;28;20055;-73
2022/07/05 03:26:56;;;;;;;3.00;1.00;;;21.60;54.60;;;;;;5069950;28;20501;-73
2022/07/05 03:29:23;;;;;;;1.60;1.00;;;21.70;54.70;;;;;;5067067;28;20041;-73
2022/07/05 03:31:50;;;;;;;2.30;0.90;;;21.60;54.60;;;;;;5070128;28;20140;-73
2022/07/05 03:34:17;;;;;;;1.13;0.90;;;21.60;54.60;;;;;;5069543;28;20055;-73
2022/07/05 03:36:43;;;;;;;1.67;1.17;;;21.60;54.60;;;;;;5069833;28;20058;-73
2022/07/05 03:39:10;;;;;;;1.00;0.93;;;21.60;54.60;;;;;;5052780;28;20037;-73
2022/07/05 03:41:40;;;;;;;1.05;0.93;;;21.60;54.50;;;;;;5067959;28;20086;-73
2022/07/05 03:44:07;;;;;;;1.33;1.00;;;21.60;54.60;;;;;;5069727;28;20405;-73
2022/07/05 03:46:33;;;;;;;1.20;1.10;;;21.60;54.60;;;;;;5069703;28;20131;-73
2022/07/05 03:49:00;;;;;;;1.80;1.20;;;21.60;54.60;;;;;;5069695;28;20148;-73
2022/07/05 03:51:27;;;;;;;1.52;0.93;;;21.60;54.60;;;;;;5067819;28;20128;-73
2022/07/05 03:53:53;;;;;;;1.13;1.00;;;21.60;54.50;;;;;;5057403;28;20056;-73
2022/07/05 03:56:22;;;;;;;0.93;0.90;;;21.60;54.60;;;;;;5041293;28;20056;-73
2022/07/05 03:58:50;;;;;;;1.23;1.10;;;21.50;54.50;;;;;;5057862;28;20037;-73
2022/07/05 04:01:18;;;;;;;1.40;1.00;;;21.50;54.60;;;;;;5060638;28;20508;-73
2022/07/05 04:03:44;;;;;;;3.28;1.00;;;21.60;54.60;;;;;;5070278;28;20131;-74
2022/07/05 04:06:11;;;;;;;0.90;0.90;;;21.50;54.60;;;;;;5069535;28;20127;-72
2022/07/05 04:08:38;;;;;;;1.40;1.10;;;21.50;54.50;;;;;;5069245;28;20052;-72
2022/07/05 04:11:05;;;;;;;1.30;0.95;;;21.60;54.60;;;;;;5052493;28;20148;-72
2022/07/05 04:13:32;;;;;;;1.13;1.00;;;21.60;54.60;;;;;;5048690;28;20157;-72
2022/07/05 04:16:00;;;;;;;1.20;1.10;;;21.50;54.60;;;;;;5048808;28;20059;-72
2022/07/05 04:18:26;;;;;;;2.00;1.20;;;21.60;54.70;;;;;;5049208;28;20049;-72
2022/07/05 04:20:53;;;;;;;1.58;1.10;;;21.50;54.70;;;;;;5048917;28;20057;-72
2022/07/05 04:23:20;;;;;;;2.28;1.10;;;21.50;54.70;;;;;;5049060;28;20521;-72
2022/07/05 04:25:47;;;;;;;1.98;1.20;;;21.50;54.80;;;;;;5056265;28;20416;-72
2022/07/05 04:28:14;;;;;;;1.77;1.10;;;21.50;54.90;;;;;;5058404;28;20044;-72
2022/07/05 04:30:41;;;;;;;1.20;1.10;;;21.50;54.90;;;;;;5057373;28;20059;-72
2022/07/05 04:33:09;;;;;;;1.73;1.23;;;21.50;54.90;;;;;;5040903;28;20072;-72
2022/07/05 04:35:36;;;;;;;1.98;1.20;;;21.60;54.80;;;;;;5059641;28;20056;-72
2022/07/05 04:38:03;;;;;;;1.27;1.10;;;21.60;54.80;;;;;;5057186;28;20124;-72
2022/07/05 04:40:29;;;;;;;1.90;1.20;;;21.60;54.90;;;;;;5055926;28;20124;-72
2022/07/05 04:42:56;;;;;;;1.30;1.10;;;21.60;54.90;;;;;;5058106;28;20132;-72
2022/07/05 04:45:23;;;;;;;2.42;1.27;;;21.60;54.90;;;;;;5058383;28;20442;-72
2022/07/05 04:47:50;;;;;;;1.95;1.33;;;21.50;54.90;;;;;;5058023;28;20052;-72
2022/07/05 04:50:18;;;;;;;1.10;1.00;;;21.50;54.90;;;;;;5057471;28;20071;-72
2022/07/05 04:52:45;;;;;;;1.83;1.20;;;21.50;54.90;;;;;;5056233;28;20050;-73
2022/07/05 04:55:11;;;;;;;2.00;1.30;;;21.50;55.00;;;;;;5067019;28;20139;-73
2022/07/05 04:57:38;;;;;;;1.35;1.23;;;21.50;55.00;;;;;;5069695;28;20044;-73
2022/07/05 05:00:06;;;;;;;2.08;1.27;;;21.50;55.00;;;;;;5067992;28;20462;-73
2022/07/05 05:02:33;;;;;;;1.83;1.27;;;21.50;55.00;;;;;;5067580;28;20060;-73
2022/07/05 05:05:00;;;;;;;1.30;1.20;;;21.50;55.10;;;;;;5067572;28;20060;-73
2022/07/05 05:07:28;;;;;;;1.35;1.23;;;21.50;55.10;;;;;;5068327;28;20247;-73
2022/07/05 05:09:55;;;;;;;1.85;1.20;;;21.50;55.10;;;;;;5067191;28;20037;-73
2022/07/05 05:12:22;;;;;;;1.20;1.10;;;21.50;55.10;;;;;;5068102;28;20048;-73
2022/07/05 05:14:49;;;;;;;1.35;1.25;;;21.50;55.10;;;;;;5067657;28;20110;-73
2022/07/05 05:17:17;;;;;;;1.70;1.25;;;21.50;55.10;;;;;;5067778;28;20580;-73
2022/07/05 05:19:44;;;;;;;1.85;1.15;;;21.50;55.20;;;;;;5067419;28;20058;-73
2022/07/05 05:22:11;;;;;;;1.30;1.05;;;21.50;55.10;;;;;;5067818;28;20075;-72
2022/07/05 05:24:40;;;;;;;2.20;1.10;;;21.50;55.10;;;;;;5061350;28;20060;-73
2022/07/05 05:27:06;;;;;;;1.33;1.20;;;21.50;55.10;;;;;;5047493;28;20049;-73
2022/07/05 05:29:33;;;;;;;1.67;1.20;;;21.50;55.10;;;;;;5048579;28;20592;-72
2022/07/05 05:32:00;;;;;;;1.55;1.13;;;21.50;55.20;;;;;;5047632;28;20132;-73
2022/07/05 05:34:27;;;;;;;1.60;1.10;;;21.50;55.20;;;;;;5048857;28;20088;-73
2022/07/05 05:36:54;;;;;;;1.38;1.00;;;21.50;55.30;;;;;;5047748;28;20061;-74
2022/07/05 05:39:20;;;;;;;1.67;1.10;;;21.40;55.20;;;;;;5055403;28;20132;-73
2022/07/05 05:41:49;;;;;;;1.30;1.20;;;21.50;55.30;;;;;;5067711;28;20053;-73
2022/07/05 05:44:15;;;;;;;2.55;1.10;;;21.50;55.40;;;;;;5067433;28;20759;-73
2022/07/05 05:46:42;;;;;;;1.50;1.20;;;21.50;55.50;;;;;;5060076;28;20145;-76
2022/07/05 05:49:09;;;;;;;1.35;1.15;;;21.60;55.50;;;;;;5047231;28;20501;-73
2022/07/05 05:51:35;;;;;;;1.38;1.10;;;21.70;55.30;;;;;;5059931;28;20059;-73
2022/07/05 05:54:02;;;;;;;3.05;1.10;;;21.80;55.10;;;;;;5067503;28;20052;-75
2022/07/05 05:56:29;;;;;;;3.40;1.42;;;22.00;54.90;;;;;;5067455;28;20052;-74
2022/07/05 05:58:58;;;;;;;5.03;1.40;;;22.10;54.70;;;;;;5067868;28;20051;-73
2022/07/05 06:01:24;;;;;;;4.00;1.20;;;22.20;54.40;;;;;;5063812;28;20057;-73
2022/07/05 06:03:51;;;;;;;2.25;1.13;;;22.40;54.30;;;;;;5051208;28;20155;-73
2022/07/05 06:06:18;;;;;;;4.32;1.20;;;22.50;54.20;;;;;;5056726;28;20124;-73
2022/07/05 06:08:44;;;;;;;1.20;0.93;;;22.70;54.00;;;;;;5057210;28;20044;-73
2022/07/05 06:11:11;;;;;;;1.10;1.00;;;22.80;53.80;;;;;;5063621;28;20136;-73
2022/07/05 06:13:38;;;;;;;1.52;1.20;;;23.00;53.60;;;;;;5066881;28;20140;-73
2022/07/05 06:16:07;;;;;;;2.70;1.00;;;23.10;53.40;;;;;;5061199;28;20072;-74
2022/07/05 06:18:34;;;;;;;2.10;1.10;;;23.20;53.10;;;;;;5056948;28;20075;-74
2022/07/05 06:21:00;;;;;;;1.17;1.00;;;23.40;53.00;;;;;;5056899;28;20045;-74
2022/07/05 06:23:27;;;;;;;2.45;1.00;;;23.50;52.80;;;;;;5055550;28;20048;-73
2022/07/05 06:25:54;;;;;;;3.05;1.10;;;23.70;52.70;;;;;;5055909;28;20120;-74
2022/07/05 06:28:20;;;;;;;2.75;1.08;;;23.80;52.50;;;;;;5054901;28;20057;-74
2022/07/05 06:30:47;;;;;;;2.10;1.10;;;23.90;52.30;;;;;;5058835;28;20047;-74
2022/07/05 06:33:15;;;;;;;2.00;1.13;;;24.00;52.20;;;;;;5067450;28;20052;-73
2022/07/05 06:35:42;;;;;;;2.15;1.10;;;24.10;52.00;;;;;;5053013;28;20148;-73
2022/07/05 06:38:09;;;;;;;2.63;1.13;;;24.20;51.90;;;;;;5047373;28;20071;-74
2022/07/05 06:40:36;;;;;;;3.00;1.00;;;24.30;51.80;;;;;;5046699;28;20055;-73
2022/07/05 06:43:04;;;;;;;1.98;1.05;;;24.30;51.60;;;;;;5046730;28;20092;-74
2022/07/05 06:45:30;;;;;;;1.20;1.00;;;24.40;51.50;;;;;;5046906;28;20552;-73
2022/07/05 06:47:57;;;;;;;2.13;0.90;;;24.50;51.50;;;;;;5047660;28;20053;-74
2022/07/05 06:50:26;;;;;;;5.57;1.10;;;24.60;51.40;;;;;;5050643;28;20055;-74
2022/07/05 06:52:52;;;;;;;3.58;1.00;;;24.60;51.30;;;;;;5047046;28;20053;-73
2022/07/05 06:55:19;;;;;;;4.68;1.25;;;24.70;51.10;;;;;;5046999;28;20383;-73
2022/07/05 06:57:46;;;;;;;1.15;0.90;;;24.80;51.10;;;;;;5048159;28;20056;-73
2022/07/05 07:00:14;;;;;;;2.17;1.10;;;24.80;50.90;;;;;;5070550;28;20053;-73
2022/07/05 07:02:40;;;;;;;4.45;1.15;;;24.90;50.80;;;;;;5052495;28;20504;-73
2022/07/05 07:05:08;;;;;;;2.83;1.00;;;24.90;50.80;;;;;;5052484;28;20052;-73
2022/07/05 07:10:20;;;;;;;7.32;1.35;;;25.00;50.70;;;;;;5070821;28;20053;-73
2022/07/05 07:12:47;;;;;;;2.72;1.10;;;25.00;50.70;;;;;;5070446;28;20059;-73
2022/07/05 07:15:13;;;;;;;2.58;1.30;;;25.00;50.60;;;;;;5070978;28;20127;-73
2022/07/05 07:17:40;;;;;;;3.42;1.13;;;25.10;50.40;;;;;;5070006;28;20707;-73
2022/07/05 07:20:08;;;;;;;24.58;6.85;;;25.10;50.30;;;;;;5069197;28;20051;-73
2022/07/05 07:22:36;;;;;;;24.88;6.78;;;25.20;50.40;;;;;;5060421;28;20124;-73
2022/07/05 07:25:04;;;;;;;20.65;5.45;;;25.20;50.50;;;;;;5065813;28;20075;-73
2022/07/05 07:27:31;;;;;;;20.13;5.00;;;25.30;50.70;;;;;;5067044;28;20565;-73
2022/07/05 07:29:58;;;;;;;15.27;4.25;;;25.40;50.70;;;;;;5051267;28;20049;-74
2022/07/05 07:32:25;;;;;;;12.98;4.38;;;25.40;50.60;;;;;;5050013;28;20048;-74
2022/07/05 07:34:51;;;;;;;13.75;3.90;;;25.50;50.60;;;;;;5049553;28;20077;-73
2022/07/05 07:37:18;;;;;;;14.02;3.20;;;25.60;50.50;;;;;;5057432;28;20051;-73
2022/07/05 07:39:46;;;;;;;11.30;3.53;;;25.60;50.40;;;;;;5058951;28;20043;-73
2022/07/05 07:42:13;;;;;;;12.20;3.53;;;25.70;50.30;;;;;;5057213;28;20129;-73
2022/07/05 07:44:40;;;;;;;10.45;3.53;;;25.80;50.20;;;;;;5059869;28;20540;-73
2022/07/05 07:47:07;;;;;;;8.32;2.90;;;25.90;50.10;;;;;;5058576;28;20059;-73
2022/07/05 07:49:33;;;;;;;12.32;2.83;;;25.90;50.50;;;;;;5059793;28;20055;-73
2022/07/05 07:52:00;;;;;;;7.28;2.67;;;26.00;50.00;;;;;;5057879;28;20063;-73
2022/07/05 07:54:27;;;;;;;7.07;2.95;;;26.00;49.80;;;;;;5060924;28;20059;-73
2022/07/05 07:56:55;;;;;;;6.57;2.90;;;26.00;49.80;;;;;;5058344;28;20053;-73
2022/07/05 07:59:22;;;;;;;6.18;2.40;;;26.00;49.80;;;;;;5058553;28;20138;-73
2022/07/05 08:01:48;;;;;;;6.53;2.55;;;26.00;49.80;;;;;;5057004;28;20078;-73
2022/07/05 08:04:15;;;;;;;7.60;2.53;;;26.00;49.70;;;;;;5057595;28;20072;-73
2022/07/05 08:06:42;;;;;;;10.25;2.72;;;26.10;49.70;;;;;;5067952;28;20076;-75
2022/07/05 08:09:09;;;;;;;4.93;2.08;;;26.10;49.70;;;;;;5068821;28;20398;-73
2022/07/05 08:11:36;;;;;;;6.45;2.47;;;26.10;49.70;;;;;;5068736;28;20489;-73
2022/07/05 08:14:04;;;;;;;7.82;2.85;;;26.00;49.60;;;;;;5059283;28;20048;-74
2022/07/05 08:16:30;;;;;;;5.13;2.38;;;26.00;49.60;;;;;;5057900;28;20079;-74
2022/07/05 08:21:41;;;;;;;5.93;2.03;;;26.00;49.70;;;;;;5057055;28;20136;-73
2022/07/05 08:24:09;;;;;;;5.63;2.17;;;25.90;49.70;;;;;;5058370;28;20331;-73
2022/07/05 08:26:36;;;;;;;7.60;2.17;;;26.10;49.90;;;;;;5057582;28;20048;-73
2022/07/05 08:29:07;;;;;;;4.55;1.90;;;25.90;49.70;;;;;;5060707;28;20464;-73
2022/07/05 08:31:34;;;;;;;5.45;2.15;;;25.90;49.70;;;;;;5062116;28;20076;-73
2022/07/05 08:34:01;;;;;;;4.80;1.80;;;26.00;49.80;;;;;;5051171;28;20136;-73
2022/07/05 08:36:28;;;;;;;4.25;1.92;;;26.00;49.70;;;;;;5058177;28;20111;-73
2022/07/05 08:38:54;;;;;;;5.45;1.95;;;26.00;49.80;;;;;;5048920;28;20139;-73
2022/07/05 08:41:22;;;;;;;4.72;2.03;;;25.90;49.70;;;;;;5048310;28;20044;-73
2022/07/05 08:43:49;;;;;;;4.57;2.17;;;25.80;49.70;;;;;;5047866;28;20585;-74
2022/07/05 08:46:18;;;;;;;5.25;2.38;;;25.80;49.80;;;;;;5055612;28;20451;-75
2022/07/05 08:48:45;;;;;;;4.32;1.80;;;25.70;49.80;;;;;;5053260;28;20143;-74
2022/07/05 08:51:13;;;;;;;5.13;1.73;;;25.60;49.80;;;;;;5056537;28;20167;-74
2022/07/05 08:53:40;;;;;;;4.55;1.60;;;25.60;49.80;;;;;;5057279;28;20045;-74
2022/07/05 08:56:08;;;;;;;5.50;1.55;;;25.50;49.70;;;;;;5049032;28;20060;-74
2022/07/05 08:58:34;;;;;;;4.45;1.60;;;25.40;49.40;;;;;;5046550;28;20061;-74
2022/07/05 09:01:02;;;;;;;4.60;1.52;;;25.30;49.10;;;;;;5051163;28;20049;-74
2022/07/05 09:03:32;;;;;;;5.45;1.52;;;25.20;48.80;;;;;;5063363;28;20105;-74
2022/07/05 09:05:59;;;;;;;2.70;1.40;;;25.20;48.90;;;;;;5053212;28;20114;-74
2022/07/05 09:08:25;;;;;;;4.25;1.50;;;25.10;49.00;;;;;;5049967;28;20057;-74
2022/07/05 09:10:52;;;;;;;6.00;1.75;;;25.00;49.00;;;;;;5047967;28;20140;-74
2022/07/05 09:13:19;;;;;;;10.88;2.20;;;24.90;49.20;;;;;;5047409;28;20084;-72
2022/07/05 09:15:46;;;;;;;9.88;1.70;;;24.90;49.70;;;;;;5048081;28;20124;-73
2022/07/05 09:18:13;;;;;;;6.70;1.80;;;24.80;50.00;;;;;;5048284;28;20053;-73
2022/07/05 09:20:41;;;;;;;10.77;1.75;;;24.70;50.10;;;;;;5059695;28;20041;-73
2022/07/05 09:23:08;;;;;;;8.00;1.48;;;24.60;50.20;;;;;;5069156;28;20101;-74
2022/07/05 09:25:34;;;;;;;5.03;1.23;;;24.50;50.30;;;;;;5068031;28;20053;-73
2022/07/05 09:28:02;;;;;;;4.15;1.27;;;24.60;50.30;;;;;;5069169;28;20072;-73
2022/07/05 09:30:32;;;;;;;6.97;1.30;;;24.50;50.20;;;;;;5067835;28;20541;-73
2022/07/05 09:33:09;;;;;;;10.10;1.70;;;24.50;50.40;;;;;;5067392;28;20057;-74
2022/07/05 09:35:36;;;;;;;5.68;2.15;;;24.50;51.00;;;;;;5049297;28;20112;-74
2022/07/05 09:38:05;;;;;;;11.50;1.85;;;24.50;51.30;;;;;;5048037;28;20119;-74
2022/07/05 09:40:32;;;;;;;6.75;1.30;;;24.60;51.30;;;;;;5047309;28;20537;-75
2022/07/05 09:43:13;;;;;;;11.18;2.13;;;24.60;51.20;;;;;;5047525;28;20056;-74
2022/07/05 09:45:40;;;;;;;5.97;1.83;;;24.60;51.30;;;;;;5049948;28;20076;-74
2022/07/05 09:48:08;;;;;;;6.85;1.75;;;24.60;51.10;;;;;;5055223;28;20073;-74
2022/07/05 09:50:35;;;;;;;7.18;1.40;;;24.60;50.90;;;;;;5054450;28;20513;-76
2022/07/05 09:53:01;;;;;;;7.65;1.85;;;24.70;50.80;;;;;;5048085;28;20051;-74
2022/07/05 09:55:30;;;;;;;4.68;1.50;;;24.70;50.70;;;;;;5047820;28;20136;-75
2022/07/05 09:57:57;;;;;;;4.70;1.30;;;24.60;50.60;;;;;;5047496;28;20052;-75
2022/07/05 10:00:24;;;;;;;4.35;1.20;;;24.70;50.70;;;;;;5055759;28;20553;-74
2022/07/05 10:02:51;;;;;;;4.07;1.20;;;24.70;50.70;;;;;;5031760;28;20421;-75
2022/07/05 10:05:18;;;;;;;4.47;1.70;;;24.60;50.60;;;;;;5051409;28;20052;-75
2022/07/05 10:07:46;;;;;;;3.42;1.17;;;24.60;50.60;;;;;;5061161;28;20440;-75
2022/07/05 10:10:13;;;;;;;4.40;1.50;;;24.60;50.60;;;;;;5049518;28;20051;-75
2022/07/05 10:12:42;;;;;;;4.45;1.27;;;24.60;50.60;;;;;;5047444;28;20136;-74
2022/07/05 10:15:10;;;;;;;3.08;1.50;;;24.60;50.60;;;;;;5047743;28;20081;-74
2022/07/05 10:17:40;;;;;;;3.75;1.30;;;24.50;50.60;;;;;;5047311;28;20059;-74
2022/07/05 10:20:13;;;;;;;4.70;1.10;;;24.50;50.70;;;;;;5046941;28;20131;-74
2022/07/05 10:22:40;;;;;;;3.85;1.25;;;24.40;50.70;;;;;;5059236;28;20132;-75
2022/07/05 10:25:07;;;;;;;2.22;1.02;;;24.40;50.80;;;;;;5066993;28;20087;-75
2022/07/05 10:27:34;;;;;;;2.03;1.10;;;24.30;51.40;;;;;;5067168;28;20132;-75
2022/07/05 10:30:03;;;;;;;3.15;1.13;;;24.30;50.90;;;;;;5068230;28;20076;-75
2022/07/05 10:32:29;;;;;;;2.55;1.10;;;24.30;51.00;;;;;;5067250;28;20139;-74
2022/07/05 10:34:56;;;;;;;3.08;1.10;;;24.20;50.90;;;;;;5072206;28;20135;-76
2022/07/05 10:37:25;;;;;;;2.42;1.20;;;24.20;50.90;;;;;;5064254;28;20141;-74
2022/07/05 10:39:52;;;;;;;3.75;1.30;;;24.10;50.90;;;;;;5056978;28;20096;-75
2022/07/05 10:42:18;;;;;;;3.65;1.50;;;24.10;51.00;;;;;;5060774;28;20645;-75
2022/07/05 10:44:45;;;;;;;3.75;1.30;;;24.10;51.10;;;;;;5061830;28;20058;-74
2022/07/05 10:47:13;;;;;;;4.03;1.50;;;24.10;51.20;;;;;;5060326;28;20052;-74
2022/07/05 10:49:41;;;;;;;3.47;1.42;;;24.00;51.20;;;;;;5059345;28;20059;-74
2022/07/05 10:52:22;;;;;;;3.35;1.30;;;24.00;51.30;;;;;;5057945;28;20094;-74
2022/07/05 10:55:22;;;;;;;2.35;1.30;;;23.90;51.30;;;;;;5061423;28;20405;-74
2022/07/05 10:58:21;;;;;;;3.53;1.30;;;23.90;51.40;;;;;;5054243;28;20493;-74
2022/07/05 11:00:48;;;;;;;3.08;1.27;;;23.90;51.00;;;;;;5068470;28;20079;-74
2022/07/05 11:03:33;;;;;;;1.50;1.15;;;23.80;51.10;;;;;;5059661;28;20052;-75
2022/07/05 11:06:00;;;;;;;3.05;1.52;;;23.80;51.10;;;;;;5065082;28;20495;-74
2022/07/05 11:08:27;;;;;;;2.88;1.50;;;23.80;51.20;;;;;;5060695;28;20053;-73
2022/07/05 11:11:10;;;;;;;3.92;1.60;;;22.80;50.50;;;;;;5059897;28;20052;-74
2022/07/05 11:13:37;;;;;;;2.15;1.00;;;23.90;51.10;;;;;;5058008;28;20433;-75
2022/07/05 11:16:32;;;;;;;2.70;1.15;;;23.90;51.10;;;;;;5058530;28;20149;-74
2022/07/05 11:19:07;;;;;;;1.92;1.10;;;24.00;51.20;;;;;;5017938;28;20405;-73
2022/07/05 11:21:34;;;;;;;2.00;1.00;;;23.90;51.20;;;;;;5058634;28;20048;-74
2022/07/05 11:24:19;;;;;;;1.75;1.08;;;23.90;51.20;;;;;;5057963;28;20051;-73
2022/07/05 11:26:46;;;;;;;2.92;1.02;;;24.00;51.30;;;;;;5063343;28;20058;-74
2022/07/05 11:29:43;;;;;;;3.28;1.10;;;24.00;51.30;;;;;;5070583;28;20055;-74
2022/07/05 11:32:13;;;;;;;3.03;1.30;;;24.00;51.60;;;;;;5052179;28;20141;-73
2022/07/05 11:34:41;;;;;;;7.63;1.45;;;24.00;51.70;;;;;;5054127;28;20131;-73
2022/07/05 11:37:23;;;;;;;2.47;1.20;;;24.00;51.50;;;;;;5056114;28;20057;-74
2022/07/05 11:40:23;;;;;;;4.28;1.10;;;24.00;51.60;;;;;;5057936;28;20500;-73
2022/07/05 11:42:51;;;;;;;3.33;1.20;;;24.00;51.60;;;;;;5068405;28;20079;-73
2022/07/05 11:45:18;;;;;;;3.58;1.10;;;23.90;51.60;;;;;;5069873;28;20079;-73
2022/07/05 11:47:44;;;;;;;3.03;1.10;;;24.00;51.60;;;;;;5070656;28;20481;-73
2022/07/05 11:50:13;;;;;;;5.35;1.20;;;24.00;51.60;;;;;;5070366;28;20131;-73
2022/07/05 11:52:40;;;;;;;1.10;0.95;;;24.00;51.50;;;;;;5070277;28;20044;-73
2022/07/05 11:55:07;;;;;;;2.08;0.90;;;24.10;51.60;;;;;;5070546;28;20521;-73
2022/07/05 11:57:34;;;;;;;2.75;0.98;;;24.10;51.50;;;;;;5056280;28;20059;-73
2022/07/05 12:00:01;;;;;;;1.73;0.95;;;24.10;51.50;;;;;;5050363;28;20053;-72
2022/07/05 12:02:28;;;;;;;1.40;0.93;;;24.10;51.50;;;;;;5065447;28;20047;-73
2022/07/05 12:04:55;;;;;;;3.55;1.13;;;24.10;52.00;;;;;;5070038;28;20078;-73
2022/07/05 12:07:27;;;;;;;3.20;1.08;;;24.20;51.50;;;;;;5070520;28;20139;-73
2022/07/05 12:12:43;;;;;;;3.00;1.17;;;24.20;51.40;;;;;;5068719;28;20041;-73
2022/07/05 12:15:12;;;;;;;2.03;1.13;;;24.20;51.40;;;;;;5069490;28;20059;-73
2022/07/05 12:17:40;;;;;;;2.30;1.05;;;24.30;51.50;;;;;;5069733;28;20044;-73
2022/07/05 12:20:08;;;;;;;3.30;1.00;;;24.30;51.50;;;;;;5069171;28;20148;-72
2022/07/05 12:22:37;;;;;;;1.15;0.93;;;24.30;51.40;;;;;;5069481;28;20049;-73
2022/07/05 12:25:06;;;;;;;2.63;1.25;;;24.20;51.30;;;;;;5069430;28;20182;-73
2022/07/05 12:27:33;;;;;;;4.03;0.95;;;24.30;51.30;;;;;;5067496;28;20049;-73
2022/07/05 12:30:01;;;;;;;1.30;1.00;;;24.40;51.30;;;;;;5070562;28;20051;-73
2022/07/05 12:32:29;;;;;;;2.50;1.00;;;24.40;51.30;;;;;;5069353;28;20551;-73
2022/07/05 12:34:56;;;;;;;2.42;1.13;;;24.40;51.20;;;;;;5069556;28;20060;-73
2022/07/05 12:37:23;;;;;;;2.67;1.10;;;24.40;51.20;;;;;;5069584;28;20135;-73
2022/07/05 12:39:51;;;;;;;4.72;1.00;;;24.50;51.30;;;;;;5069236;28;20131;-72
2022/07/05 12:42:32;;;;;;;1.83;0.90;;;24.50;51.30;;;;;;5065621;28;20077;-73
2022/07/05 12:45:12;;;;;;;3.53;1.27;;;24.60;51.30;;;;;;5048936;28;20085;-73
2022/07/05 12:47:49;;;;;;;2.65;1.00;;;24.50;51.30;;;;;;5049173;28;20056;-73
2022/07/05 12:50:15;;;;;;;1.67;1.20;;;24.50;51.30;;;;;;5048803;28;20086;-73
2022/07/05 12:52:58;;;;;;;2.40;1.00;;;24.50;51.20;;;;;;5049725;28;20135;-72
2022/07/05 12:58:18;;;;;;;2.08;0.90;;;24.50;51.20;;;;;;5063651;28;20048;-73
2022/07/05 13:00:44;;;;;;;1.13;0.93;;;24.60;51.30;;;;;;5069065;28;20059;-73